Time;durP1;ratioP1;P1;durP2;ratioP2;P2;SDS_P1;SDS_P2;PMS_P1;PMS_P2;Temp;Humidity;BMP_temperature;BMP_pressure;BME280_temperature;BME280_humidity;BME280_pressure;Samples;Min_cycle;Max_cycle;Signal;HPM_P1;HPM_P2
2024/03/24 00:00:22;;;;;;;3.97;1.52;;;10.90;53.70;;;;;;5011453;28;20065;-69
2024/03/24 00:02:49;;;;;;;0.98;0.90;;;10.80;53.80;;;;;;4995482;28;20053;-72
2024/03/24 00:05:17;;;;;;;1.45;1.17;;;10.90;53.90;;;;;;5011737;28;20119;-72
2024/03/24 00:07:44;;;;;;;3.75;1.60;;;10.90;54.00;;;;;;5016062;28;20198;-69
2024/03/24 00:10:11;;;;;;;3.35;1.55;;;11.00;54.00;;;;;;5005513;28;20057;-68
2024/03/24 00:12:37;;;;;;;7.55;1.00;;;11.10;53.90;;;;;;5011295;28;20057;-69
2024/03/24 00:15:05;;;;;;;6.65;1.40;;;11.10;53.80;;;;;;5014834;28;20073;-72
2024/03/24 00:17:32;;;;;;;18.00;5.30;;;11.10;53.80;;;;;;5012398;28;20061;-71
2024/03/24 00:20:00;;;;;;;0.75;0.75;;;11.20;53.80;;;;;;5012322;28;20061;-66
2024/03/24 00:22:28;;;;;;;1.13;0.90;;;11.30;53.80;;;;;;5011708;28;20050;-72
2024/03/24 00:24:55;;;;;;;1.40;0.98;;;11.30;53.70;;;;;;5012260;28;20061;-68
2024/03/24 00:27:21;;;;;;;13.77;4.53;;;11.40;53.70;;;;;;5008974;28;20586;-71
2024/03/24 00:29:49;;;;;;;7.93;3.08;;;11.50;53.60;;;;;;5012022;28;20053;-67
2024/03/24 00:32:15;;;;;;;1.10;0.90;;;11.50;53.50;;;;;;4987641;28;20058;-66
2024/03/24 00:34:45;;;;;;;13.27;3.28;;;11.50;53.40;;;;;;5013412;28;20417;-67
2024/03/24 00:37:11;;;;;;;6.25;2.25;;;11.60;53.40;;;;;;4993953;28;20103;-68
2024/03/24 00:39:40;;;;;;;2.28;1.50;;;11.60;53.40;;;;;;5011151;28;20050;-67
2024/03/24 00:42:06;;;;;;;1.20;1.08;;;11.60;53.40;;;;;;5009346;28;20057;-70
2024/03/24 00:44:36;;;;;;;1.92;1.20;;;11.50;53.30;;;;;;5014141;28;20092;-71
2024/03/24 00:47:02;;;;;;;0.98;0.88;;;11.50;53.30;;;;;;5013536;28;20045;-69
2024/03/24 00:49:29;;;;;;;0.95;0.90;;;11.40;53.40;;;;;;5015608;28;20057;-69
2024/03/24 00:51:56;;;;;;;1.42;1.33;;;11.40;53.40;;;;;;5012231;28;20061;-67
2024/03/24 00:54:23;;;;;;;5.00;1.10;;;11.30;53.40;;;;;;5007412;28;20114;-71
2024/03/24 00:56:50;;;;;;;3.83;1.60;;;11.20;53.40;;;;;;5014992;28;20057;-72
2024/03/24 00:59:21;;;;;;;2.28;1.60;;;11.10;53.50;;;;;;4996197;28;20065;-68
2024/03/24 01:01:47;;;;;;;2.13;1.55;;;11.00;53.50;;;;;;4995484;28;20408;-69
2024/03/24 01:04:15;;;;;;;1.27;0.95;;;10.90;53.60;;;;;;5003646;28;20057;-68
2024/03/24 01:06:41;;;;;;;2.05;1.10;;;10.90;53.70;;;;;;4993158;28;20045;-68
2024/03/24 01:09:08;;;;;;;1.30;1.20;;;10.80;53.70;;;;;;4996592;28;20107;-69
2024/03/24 01:11:35;;;;;;;1.52;1.33;;;10.80;53.80;;;;;;5012942;28;20057;-69
2024/03/24 01:14:03;;;;;;;2.50;1.25;;;10.70;53.80;;;;;;5003811;28;20049;-68
2024/03/24 01:16:30;;;;;;;1.23;1.13;;;10.70;53.90;;;;;;4992403;28;20072;-68
2024/03/24 01:18:58;;;;;;;1.60;1.25;;;10.80;53.90;;;;;;5005615;28;20057;-73
2024/03/24 01:21:24;;;;;;;9.48;2.05;;;10.90;53.90;;;;;;4999615;28;20148;-68
2024/03/24 01:23:52;;;;;;;1.40;1.05;;;10.90;54.20;;;;;;5009042;28;20069;-69
2024/03/24 01:26:18;;;;;;;1.95;1.08;;;11.00;53.90;;;;;;5005205;28;20936;-69
2024/03/24 01:28:45;;;;;;;1.20;1.08;;;11.00;53.80;;;;;;4993016;28;20535;-68
2024/03/24 01:31:13;;;;;;;2.38;1.02;;;11.00;53.70;;;;;;5010291;28;20060;-68
2024/03/24 01:33:40;;;;;;;4.30;1.33;;;11.00;53.60;;;;;;4995051;28;20111;-67
2024/03/24 01:36:07;;;;;;;6.32;1.80;;;10.90;53.50;;;;;;5006207;28;20060;-71
2024/03/24 01:38:34;;;;;;;0.90;0.90;;;10.80;53.60;;;;;;5015252;28;20472;-70
2024/03/24 01:41:00;;;;;;;3.80;1.25;;;10.70;53.70;;;;;;5014770;28;20052;-69
2024/03/24 01:43:28;;;;;;;6.05;1.23;;;10.60;53.80;;;;;;5013278;28;20068;-72
2024/03/24 01:45:54;;;;;;;1.17;1.08;;;10.50;53.90;;;;;;5008242;28;20111;-66
2024/03/24 01:48:23;;;;;;;1.60;1.02;;;10.40;54.00;;;;;;4992507;28;20829;-68
2024/03/24 01:50:49;;;;;;;3.50;0.90;;;10.40;54.10;;;;;;4996267;28;20045;-70
2024/03/24 01:53:17;;;;;;;1.33;1.13;;;10.40;54.40;;;;;;5015088;28;20144;-71
2024/03/24 01:55:43;;;;;;;1.88;1.17;;;10.40;54.20;;;;;;5010475;28;20053;-68
2024/03/24 01:58:11;;;;;;;1.48;1.02;;;10.40;54.20;;;;;;4989110;28;20134;-73
2024/03/24 02:00:37;;;;;;;1.52;1.20;;;10.50;54.20;;;;;;5013898;28;20046;-70
2024/03/24 02:03:05;;;;;;;1.40;0.95;;;10.60;54.30;;;;;;5013593;28;20081;-68
2024/03/24 02:05:32;;;;;;;5.90;1.15;;;10.70;54.20;;;;;;5013084;28;20065;-69
2024/03/24 02:08:01;;;;;;;3.53;1.20;;;10.80;54.10;;;;;;4996040;28;20049;-66
2024/03/24 02:10:28;;;;;;;2.97;2.08;;;10.80;54.00;;;;;;5011230;28;20053;-68
2024/03/24 02:12:55;;;;;;;2.20;1.33;;;10.80;53.90;;;;;;5013326;28;20460;-68
2024/03/24 02:15:22;;;;;;;2.50;1.58;;;10.80;53.90;;;;;;4997741;28;20045;-67
2024/03/24 02:17:50;;;;;;;5.93;1.88;;;10.80;54.00;;;;;;5012953;28;20133;-68
2024/03/24 02:20:16;;;;;;;6.88;2.45;;;10.80;54.00;;;;;;4988183;28;20049;-68
2024/03/24 02:22:45;;;;;;;2.03;1.27;;;10.80;54.00;;;;;;4998944;28;20425;-67
2024/03/24 02:25:11;;;;;;;16.77;4.80;;;10.80;54.00;;;;;;5013878;28;20045;-70
2024/03/24 02:27:38;;;;;;;2.45;1.55;;;10.90;54.00;;;;;;5002337;28;20053;-68
2024/03/24 02:30:10;;;;;;;38.92;11.73;;;10.90;54.00;;;;;;5003737;28;20056;-66
2024/03/24 02:32:38;;;;;;;39.47;12.60;;;10.90;53.90;;;;;;5014097;28;20049;-69
2024/03/24 02:35:04;;;;;;;20.05;5.55;;;11.00;53.90;;;;;;5013433;28;20045;-68
2024/03/24 02:37:32;;;;;;;6.97;2.25;;;11.00;53.90;;;;;;5010421;28;20615;-68
2024/03/24 02:40:00;;;;;;;0.70;0.60;;;11.00;53.80;;;;;;5009817;28;20045;-67
2024/03/24 02:42:27;;;;;;;3.33;1.58;;;11.00;53.70;;;;;;5009361;28;20057;-67
2024/03/24 02:44:53;;;;;;;9.65;3.58;;;11.00;53.80;;;;;;5012515;28;20060;-68
2024/03/24 02:47:20;;;;;;;1.58;1.15;;;10.90;53.80;;;;;;5013864;28;20528;-67
2024/03/24 02:49:48;;;;;;;6.07;1.85;;;11.00;53.90;;;;;;5016963;28;20128;-69
2024/03/24 02:52:15;;;;;;;12.40;5.03;;;11.00;53.80;;;;;;5005908;28;20485;-68
2024/03/24 02:54:41;;;;;;;1.25;1.00;;;11.00;53.80;;;;;;5030656;28;20175;-68
2024/03/24 02:57:10;;;;;;;7.60;2.90;;;11.00;53.80;;;;;;5011837;28;20037;-70
2024/03/24 02:59:36;;;;;;;1.20;1.10;;;10.90;53.80;;;;;;5000536;28;20125;-70
2024/03/24 03:02:04;;;;;;;4.35;2.30;;;10.90;53.90;;;;;;5004980;28;20463;-68
2024/03/24 03:04:32;;;;;;;1.02;0.77;;;10.90;53.80;;;;;;5015581;28;20052;-68
2024/03/24 03:06:59;;;;;;;1.17;1.10;;;10.90;53.80;;;;;;5010161;28;20056;-68
2024/03/24 03:09:26;;;;;;;1.52;1.02;;;10.90;54.40;;;;;;5014238;28;20045;-73
2024/03/24 03:11:54;;;;;;;2.33;1.65;;;11.00;53.80;;;;;;5014467;28;20054;-70
2024/03/24 03:14:22;;;;;;;2.42;1.73;;;11.00;54.30;;;;;;5009963;28;21000;-68
2024/03/24 03:16:49;;;;;;;0.80;0.80;;;11.00;53.80;;;;;;5007809;28;20063;-72
2024/03/24 03:19:15;;;;;;;2.72;1.80;;;11.00;53.80;;;;;;5007764;28;20064;-72
2024/03/24 03:21:42;;;;;;;0.77;0.77;;;10.90;53.80;;;;;;5005682;28;20151;-68
2024/03/24 03:24:09;;;;;;;3.70;1.40;;;11.00;53.80;;;;;;5007150;28;20049;-68
2024/03/24 03:26:36;;;;;;;28.33;9.45;;;10.90;54.30;;;;;;5012646;28;20053;-70
2024/03/24 03:29:02;;;;;;;1.13;1.02;;;10.90;53.70;;;;;;5017178;28;20049;-68
2024/03/24 03:31:31;;;;;;;1.13;1.13;;;10.80;53.70;;;;;;5012396;28;20133;-72
2024/03/24 03:33:58;;;;;;;10.43;2.88;;;10.60;53.80;;;;;;5011608;28;20053;-67
2024/03/24 03:36:25;;;;;;;2.72;1.90;;;10.50;54.00;;;;;;5010047;28;20177;-68
2024/03/24 03:38:52;;;;;;;3.13;1.45;;;10.40;54.10;;;;;;5014478;28;20065;-66
2024/03/24 03:41:20;;;;;;;5.90;3.20;;;10.40;54.30;;;;;;5014067;28;20053;-67
2024/03/24 03:43:46;;;;;;;4.13;1.67;;;10.30;54.40;;;;;;5014878;28;20538;-70
2024/03/24 03:46:13;;;;;;;1.55;1.45;;;10.30;54.40;;;;;;5010071;28;20065;-69
2024/03/24 03:48:43;;;;;;;1.48;1.38;;;10.30;54.70;;;;;;5013274;28;20536;-68
2024/03/24 03:51:19;;;;;;;4.03;1.95;;;10.40;54.60;;;;;;5012895;28;20057;-67
2024/03/24 03:53:48;;;;;;;1.38;1.05;;;10.40;54.50;;;;;;5007859;28;20069;-71
2024/03/24 03:56:15;;;;;;;2.58;1.60;;;10.40;54.40;;;;;;5006905;28;20050;-68
2024/03/24 03:58:41;;;;;;;2.42;1.55;;;10.50;54.30;;;;;;5014151;28;20061;-67
2024/03/24 04:01:08;;;;;;;1.15;1.05;;;10.50;54.30;;;;;;5013646;28;20053;-68
2024/03/24 04:03:35;;;;;;;1.27;1.20;;;10.60;54.20;;;;;;5010756;28;20053;-68
2024/03/24 04:06:05;;;;;;;1.63;1.52;;;10.60;54.20;;;;;;5006951;28;20057;-70
2024/03/24 04:08:32;;;;;;;10.30;1.55;;;10.60;54.30;;;;;;5007994;28;20064;-69
2024/03/24 04:10:59;;;;;;;2.17;1.55;;;10.70;54.40;;;;;;5005783;28;20552;-67
2024/03/24 04:13:25;;;;;;;1.73;1.38;;;10.70;54.20;;;;;;5013623;28;20064;-69
2024/03/24 04:15:52;;;;;;;1.45;1.38;;;10.70;54.20;;;;;;5004568;28;20463;-68
2024/03/24 04:18:18;;;;;;;3.10;1.67;;;10.80;54.20;;;;;;5003556;28;20088;-68
2024/03/24 04:20:46;;;;;;;0.90;0.90;;;10.80;54.20;;;;;;5015779;28;20053;-68
2024/03/24 04:23:13;;;;;;;1.67;1.58;;;10.80;54.10;;;;;;5004416;28;20157;-68
2024/03/24 04:25:41;;;;;;;2.92;1.70;;;10.80;54.20;;;;;;5009522;28;20053;-72
2024/03/24 04:28:07;;;;;;;1.40;1.20;;;10.90;54.30;;;;;;5000573;28;20107;-68
2024/03/24 04:30:35;;;;;;;7.93;1.42;;;10.90;54.20;;;;;;4996858;28;20049;-67
2024/03/24 04:33:02;;;;;;;3.90;2.03;;;10.90;54.20;;;;;;5012742;28;20064;-68
2024/03/24 04:35:29;;;;;;;2.25;1.50;;;10.90;54.30;;;;;;5014214;28;20062;-68
2024/03/24 04:37:55;;;;;;;1.10;0.90;;;10.90;54.20;;;;;;5009648;28;20057;-67
2024/03/24 04:40:24;;;;;;;1.00;0.90;;;10.80;54.10;;;;;;5009679;28;21810;-68
2024/03/24 04:42:52;;;;;;;3.10;1.65;;;10.80;54.10;;;;;;4984794;28;20053;-66
2024/03/24 04:45:19;;;;;;;2.88;1.33;;;10.70;54.20;;;;;;5010020;28;20579;-67
2024/03/24 04:47:46;;;;;;;0.82;0.82;;;10.70;54.20;;;;;;5010419;28;20500;-68
2024/03/24 04:50:13;;;;;;;0.80;0.80;;;10.70;54.20;;;;;;5007836;28;20050;-67
2024/03/24 04:52:40;;;;;;;1.90;1.73;;;10.70;54.20;;;;;;5009176;28;20062;-68
2024/03/24 04:55:08;;;;;;;3.67;1.52;;;10.70;54.20;;;;;;5011539;28;20136;-68
2024/03/24 04:57:35;;;;;;;1.73;1.10;;;10.80;54.20;;;;;;5010456;28;20103;-67
2024/03/24 05:00:07;;;;;;;3.40;1.75;;;10.70;54.20;;;;;;4999803;28;20061;-69
2024/03/24 05:02:33;;;;;;;1.20;1.10;;;10.80;54.20;;;;;;5010426;28;20220;-67
2024/03/24 05:05:01;;;;;;;1.83;1.30;;;10.80;54.20;;;;;;5012885;28;20049;-68
2024/03/24 05:07:30;;;;;;;1.60;1.08;;;10.80;54.10;;;;;;5009734;28;20057;-67
2024/03/24 05:09:57;;;;;;;1.13;1.13;;;10.80;54.10;;;;;;5007134;28;20056;-69
2024/03/24 05:12:23;;;;;;;2.25;1.65;;;10.80;54.10;;;;;;4984386;28;20073;-67
2024/03/24 05:14:52;;;;;;;1.20;1.10;;;10.80;54.10;;;;;;5006374;28;20092;-69
2024/03/24 05:17:18;;;;;;;1.45;1.15;;;10.80;54.10;;;;;;5013297;28;20065;-68
2024/03/24 05:19:46;;;;;;;1.10;1.00;;;10.80;54.10;;;;;;5010660;28;20056;-68
2024/03/24 05:22:12;;;;;;;1.15;1.13;;;10.80;54.10;;;;;;4998262;28;20049;-67
2024/03/24 05:24:40;;;;;;;1.30;1.20;;;10.70;54.10;;;;;;5005038;28;20156;-69
2024/03/24 05:27:06;;;;;;;2.40;1.80;;;10.70;54.20;;;;;;5006947;28;20058;-69
2024/03/24 05:29:34;;;;;;;2.05;1.45;;;10.60;54.30;;;;;;5004199;28;20045;-72
2024/03/24 05:32:02;;;;;;;2.33;1.52;;;10.50;54.50;;;;;;4984876;28;20041;-68
2024/03/24 05:34:29;;;;;;;2.65;1.67;;;10.50;54.60;;;;;;5011728;28;20046;-67
2024/03/24 05:36:55;;;;;;;3.00;1.65;;;10.50;54.70;;;;;;5008070;28;20064;-68
2024/03/24 05:39:23;;;;;;;2.38;1.48;;;10.60;55.00;;;;;;4997876;28;20568;-69
2024/03/24 05:41:49;;;;;;;2.65;1.52;;;10.50;54.70;;;;;;4994842;28;20065;-70
2024/03/24 05:44:17;;;;;;;1.55;1.45;;;10.50;54.80;;;;;;5005323;28;20060;-69
2024/03/24 05:46:44;;;;;;;1.30;1.20;;;10.60;54.90;;;;;;4994735;28;20045;-72
2024/03/24 05:49:13;;;;;;;1.45;1.20;;;10.50;54.80;;;;;;4998268;28;20061;-71
2024/03/24 05:51:39;;;;;;;2.05;1.83;;;10.50;55.00;;;;;;5011956;28;20084;-72
2024/03/24 05:54:07;;;;;;;1.20;1.13;;;10.50;55.00;;;;;;5005410;28;20061;-68
2024/03/24 05:56:34;;;;;;;1.70;1.20;;;10.60;55.00;;;;;;5000147;28;20064;-68
2024/03/24 05:59:02;;;;;;;2.13;0.80;;;10.60;55.00;;;;;;5010918;28;20111;-68
2024/03/24 06:01:28;;;;;;;0.80;0.80;;;10.70;54.80;;;;;;5011564;28;20092;-69
2024/03/24 06:03:55;;;;;;;1.15;1.10;;;10.60;54.70;;;;;;4993523;28;20076;-67
2024/03/24 06:06:24;;;;;;;2.83;1.15;;;10.60;54.70;;;;;;5006716;28;20049;-68
2024/03/24 06:08:52;;;;;;;1.90;1.55;;;10.60;54.90;;;;;;4995688;28;20069;-67
2024/03/24 06:11:18;;;;;;;1.40;1.08;;;10.60;55.00;;;;;;4991979;28;20041;-66
2024/03/24 06:13:45;;;;;;;2.15;1.55;;;10.60;54.90;;;;;;5002772;28;20061;-67
2024/03/24 06:16:12;;;;;;;3.50;1.58;;;10.70;55.00;;;;;;5001998;28;20085;-70
2024/03/24 06:18:39;;;;;;;6.85;1.48;;;10.80;55.00;;;;;;5007887;28;20408;-67
2024/03/24 06:21:06;;;;;;;3.58;1.95;;;10.80;54.90;;;;;;5007155;28;20061;-69
2024/03/24 06:23:35;;;;;;;4.22;1.98;;;10.70;55.00;;;;;;4991514;28;20049;-73
2024/03/24 06:26:03;;;;;;;1.45;1.35;;;10.60;55.00;;;;;;4989378;28;20073;-67
2024/03/24 06:28:31;;;;;;;2.45;1.85;;;10.60;55.30;;;;;;5009593;28;20531;-68
2024/03/24 06:30:57;;;;;;;4.07;2.70;;;10.60;55.30;;;;;;4996034;28;20083;-68
2024/03/24 06:33:24;;;;;;;2.25;1.48;;;10.60;55.30;;;;;;5007880;28;20150;-68
2024/03/24 06:35:50;;;;;;;5.20;2.45;;;10.60;55.40;;;;;;5008777;28;20056;-71
2024/03/24 06:38:19;;;;;;;5.50;2.97;;;10.60;55.40;;;;;;5002492;28;20125;-70
2024/03/24 06:40:46;;;;;;;4.43;2.40;;;10.60;55.30;;;;;;5006548;28;20061;-70
2024/03/24 06:43:19;;;;;;;5.07;1.88;;;10.50;55.30;;;;;;5002194;28;20050;-67
2024/03/24 06:45:48;;;;;;;3.72;2.90;;;10.40;55.50;;;;;;5007419;28;20155;-68
2024/03/24 06:48:16;;;;;;;1.35;1.23;;;10.40;55.40;;;;;;4997743;28;20134;-71
2024/03/24 06:50:42;;;;;;;8.75;1.83;;;10.30;55.30;;;;;;5004822;28;20068;-68
2024/03/24 06:53:09;;;;;;;1.58;1.30;;;10.30;56.10;;;;;;4985219;28;20061;-67
2024/03/24 06:55:36;;;;;;;1.55;1.30;;;10.30;55.50;;;;;;5010142;28;20057;-65
2024/03/24 06:58:05;;;;;;;4.03;2.03;;;10.20;55.50;;;;;;4994027;28;20068;-67
2024/03/24 07:00:31;;;;;;;2.17;1.92;;;10.20;56.30;;;;;;5006007;28;20065;-68
2024/03/24 07:02:59;;;;;;;2.60;2.10;;;10.20;55.70;;;;;;5010899;28;20816;-67
2024/03/24 07:05:29;;;;;;;5.28;2.10;;;10.20;55.80;;;;;;5003719;28;20049;-65
2024/03/24 07:08:06;;;;;;;6.15;1.95;;;10.20;55.80;;;;;;5003306;28;20130;-64
2024/03/24 07:10:52;;;;;;;1.85;1.70;;;10.10;55.80;;;;;;5025142;28;20725;-67
2024/03/24 07:13:20;;;;;;;2.55;1.23;;;10.20;56.00;;;;;;4997215;28;20053;-64
2024/03/24 07:19:30;;;;;;;4.95;2.17;;;10.20;56.20;;;;;;5005390;28;20119;-66
2024/03/24 07:21:57;;;;;;;1.40;1.30;;;10.20;56.10;;;;;;5003413;28;20843;-66
2024/03/24 07:24:24;;;;;;;3.20;1.95;;;10.20;56.20;;;;;;4986733;28;20581;-66
2024/03/24 07:26:50;;;;;;;4.55;2.17;;;10.40;56.20;;;;;;5010335;28;20064;-65
2024/03/24 07:29:19;;;;;;;5.55;2.05;;;10.40;56.20;;;;;;5013326;28;20061;-67
2024/03/24 07:31:45;;;;;;;15.88;2.30;;;10.40;56.10;;;;;;5013030;28;20049;-70
2024/03/24 07:34:13;;;;;;;1.90;1.58;;;10.50;56.10;;;;;;5008205;28;20502;-65
2024/03/24 07:36:39;;;;;;;4.20;2.00;;;10.50;55.90;;;;;;5016817;28;20061;-67
2024/03/24 07:39:06;;;;;;;2.25;2.03;;;10.40;55.90;;;;;;5013587;28;20057;-68
2024/03/24 07:41:33;;;;;;;4.93;1.67;;;10.40;55.90;;;;;;5008404;28;20053;-64
2024/03/24 07:44:00;;;;;;;3.17;1.58;;;10.40;56.00;;;;;;5009744;28;20045;-64
2024/03/24 07:46:28;;;;;;;2.13;1.58;;;10.40;56.00;;;;;;5008172;28;20060;-64
2024/03/24 07:48:56;;;;;;;1.75;1.30;;;10.30;56.40;;;;;;5004035;28;20062;-65
2024/03/24 07:51:23;;;;;;;1.50;1.30;;;10.30;56.10;;;;;;5009108;28;20143;-63
2024/03/24 07:53:51;;;;;;;2.38;1.48;;;10.20;57.40;;;;;;5002281;28;20116;-67
2024/03/24 07:56:18;;;;;;;1.40;1.30;;;10.20;58.20;;;;;;4996432;28;20607;-63
2024/03/24 07:58:45;;;;;;;1.48;1.00;;;10.30;58.80;;;;;;5004823;28;20049;-62
2024/03/24 08:01:12;;;;;;;1.83;1.73;;;10.30;59.10;;;;;;5007015;28;20136;-63
2024/03/24 08:03:44;;;;;;;1.15;1.05;;;10.40;59.40;;;;;;4991984;28;20050;-66
2024/03/24 08:06:17;;;;;;;2.33;1.45;;;10.50;59.60;;;;;;4997925;28;20069;-61
2024/03/24 08:08:48;;;;;;;1.83;1.15;;;10.60;59.80;;;;;;5008289;28;20076;-61
2024/03/24 08:11:19;;;;;;;;;;;10.80;60.00;;;;;;5004194;28;20057;-64
2024/03/24 08:13:49;;;;;;;0.95;0.95;;;11.00;59.80;;;;;;5001501;28;19929;-61
2024/03/24 08:16:20;;;;;;;0.60;0.60;;;11.00;59.70;;;;;;4997812;28;20045;-61
2024/03/24 08:18:47;;;;;;;1.55;1.45;;;10.90;59.60;;;;;;5006401;28;20061;-60
2024/03/24 08:21:16;;;;;;;1.73;1.02;;;10.90;59.90;;;;;;4983886;28;20869;-64
2024/03/24 08:23:43;;;;;;;0.90;0.90;;;10.90;60.10;;;;;;5004361;28;20060;-60
2024/03/24 08:26:10;;;;;;;1.52;1.08;;;11.00;60.50;;;;;;4997869;28;20068;-60
2024/03/24 08:28:36;;;;;;;0.93;0.82;;;11.20;60.60;;;;;;5022270;28;20543;-59
2024/03/24 08:31:04;;;;;;;1.42;1.30;;;11.30;60.50;;;;;;4989434;28;20069;-64
2024/03/24 08:33:30;;;;;;;1.10;1.00;;;11.50;60.90;;;;;;5004271;28;20504;-63
2024/03/24 08:35:59;;;;;;;1.27;1.17;;;11.70;60.80;;;;;;4988059;28;20108;-59
2024/03/24 08:38:26;;;;;;;1.02;0.90;;;11.80;60.60;;;;;;4996640;28;20060;-61
2024/03/24 08:40:53;;;;;;;3.10;1.38;;;11.90;60.40;;;;;;4996342;28;20945;-62
2024/03/24 08:43:23;;;;;;;4.85;2.17;;;12.00;60.50;;;;;;5000521;28;20058;-61
2024/03/24 08:45:50;;;;;;;1.42;0.75;;;12.10;60.90;;;;;;5010477;28;20057;-60
2024/03/24 08:48:17;;;;;;;3.50;2.25;;;12.20;60.70;;;;;;4991303;28;20060;-62
2024/03/24 08:50:44;;;;;;;1.10;1.05;;;12.30;60.60;;;;;;5002640;28;20095;-64
2024/03/24 08:53:14;;;;;;;1.98;1.25;;;12.40;60.60;;;;;;5004351;28;20053;-62
2024/03/24 08:55:41;;;;;;;1.00;1.00;;;12.40;60.30;;;;;;5005381;28;20662;-67
2024/03/24 08:58:08;;;;;;;0.60;0.60;;;12.30;60.30;;;;;;5001070;28;20049;-69
2024/03/24 09:00:35;;;;;;;2.70;1.33;;;12.30;61.40;;;;;;4994328;28;20076;-69
2024/03/24 09:03:02;;;;;;;1.88;1.52;;;12.30;60.50;;;;;;5009233;28;20154;-66
2024/03/24 09:05:29;;;;;;;6.85;2.00;;;12.30;60.70;;;;;;4996633;28;20472;-64
2024/03/24 09:07:56;;;;;;;2.40;1.85;;;12.40;61.00;;;;;;5011434;28;20278;-69
2024/03/24 09:10:25;;;;;;;1.90;1.20;;;12.60;61.40;;;;;;5036856;28;20042;-64
2024/03/24 09:12:51;;;;;;;1.42;0.95;;;12.80;61.20;;;;;;5011599;28;20053;-67
2024/03/24 09:15:19;;;;;;;0.70;0.70;;;13.10;61.10;;;;;;5012348;28;20515;-62
2024/03/24 09:17:45;;;;;;;1.05;0.80;;;13.10;60.40;;;;;;5006092;28;20111;-63
2024/03/24 09:20:15;;;;;;;0.88;0.88;;;13.10;60.10;;;;;;5005171;28;20420;-67
2024/03/24 09:22:41;;;;;;;0.70;0.70;;;12.90;60.00;;;;;;5009315;28;20084;-65
2024/03/24 09:25:09;;;;;;;1.38;1.15;;;12.80;60.00;;;;;;5009882;28;20595;-64
2024/03/24 09:27:37;;;;;;;1.52;1.15;;;12.80;60.40;;;;;;5010108;28;20096;-67
2024/03/24 09:30:05;;;;;;;0.82;0.82;;;12.90;60.70;;;;;;4999163;28;20149;-62
2024/03/24 09:32:32;;;;;;;0.85;0.85;;;13.10;60.50;;;;;;5007524;28;20065;-64
2024/03/24 09:34:59;;;;;;;1.50;1.40;;;13.00;60.10;;;;;;5002130;28;20488;-63
2024/03/24 09:37:26;;;;;;;0.88;0.88;;;13.00;60.30;;;;;;5009905;28;20115;-65
2024/03/24 09:39:53;;;;;;;1.23;1.13;;;13.10;60.50;;;;;;5007600;28;20065;-61
2024/03/24 09:42:19;;;;;;;6.32;1.60;;;13.10;60.30;;;;;;5000843;28;20050;-64
2024/03/24 09:44:50;;;;;;;3.30;2.05;;;13.10;60.10;;;;;;5009866;28;20057;-65
2024/03/24 09:47:16;;;;;;;7.07;0.75;;;13.00;60.20;;;;;;4989434;28;20045;-66
2024/03/24 09:49:46;;;;;;;1.33;1.23;;;13.00;60.50;;;;;;4936047;28;20049;-64
2024/03/24 09:52:14;;;;;;;3.35;1.05;;;13.00;61.40;;;;;;4963213;28;20073;-66
2024/03/24 09:54:41;;;;;;;0.57;0.50;;;13.20;61.40;;;;;;4997566;28;20096;-66
2024/03/24 09:57:08;;;;;;;0.88;0.88;;;13.30;60.60;;;;;;5001866;28;20128;-65
2024/03/24 09:59:37;;;;;;;1.35;1.08;;;13.50;60.70;;;;;;4995866;28;20111;-71
2024/03/24 10:02:07;;;;;;;1.02;0.93;;;13.50;60.00;;;;;;4991087;28;20049;-66
2024/03/24 10:04:36;;;;;;;1.52;0.77;;;13.50;59.70;;;;;;5002475;28;20492;-68
2024/03/24 10:07:02;;;;;;;0.57;0.57;;;13.50;59.60;;;;;;4998959;28;20182;-65
2024/03/24 10:09:30;;;;;;;1.00;1.00;;;13.50;59.80;;;;;;4984029;28;20045;-64
2024/03/24 10:11:56;;;;;;;1.30;0.47;;;13.50;59.80;;;;;;4992446;28;20053;-64
2024/03/24 10:14:25;;;;;;;0.45;0.45;;;13.60;59.80;;;;;;4991090;28;20249;-64
2024/03/24 10:16:52;;;;;;;0.50;0.47;;;13.50;59.20;;;;;;5001694;28;20076;-67
2024/03/24 10:19:24;;;;;;;4.88;1.58;;;13.30;59.00;;;;;;5000892;28;20053;-65
2024/03/24 10:21:52;;;;;;;3.58;1.58;;;13.00;58.90;;;;;;5002816;28;20049;-62
2024/03/24 10:24:19;;;;;;;4.03;2.03;;;12.90;59.30;;;;;;4997240;28;20037;-54
2024/03/24 10:26:45;;;;;;;0.50;0.50;;;12.80;59.30;;;;;;5002796;28;20413;-53
2024/03/24 10:29:13;;;;;;;6.22;1.73;;;12.80;59.30;;;;;;5003361;28;20050;-53
2024/03/24 10:31:41;;;;;;;2.58;0.70;;;12.90;60.00;;;;;;5011062;28;20034;-49
2024/03/24 10:34:08;;;;;;;1.08;0.93;;;12.90;59.50;;;;;;4992973;28;20061;-55
2024/03/24 10:36:38;;;;;;;0.63;0.63;;;12.80;59.40;;;;;;5000900;28;20395;-52
2024/03/24 10:39:06;;;;;;;1.27;1.17;;;12.80;59.80;;;;;;5001757;28;20132;-54
2024/03/24 10:41:35;;;;;;;9.05;1.23;;;12.90;59.60;;;;;;4996583;28;20642;-53
2024/03/24 10:44:04;;;;;;;4.55;1.73;;;13.00;59.50;;;;;;5002971;28;20201;-58
2024/03/24 10:46:31;;;;;;;1.55;1.45;;;13.10;59.60;;;;;;4998999;28;20062;-56
2024/03/24 10:49:00;;;;;;;0.75;0.70;;;13.20;59.50;;;;;;5001786;28;20118;-53
2024/03/24 10:51:30;;;;;;;0.70;0.70;;;13.10;59.10;;;;;;5000317;28;20045;-49
2024/03/24 10:54:03;;;;;;;0.82;0.82;;;13.00;58.90;;;;;;5002122;28;20523;-56
2024/03/24 10:56:30;;;;;;;5.60;1.25;;;12.90;58.70;;;;;;5003218;28;20544;-53
2024/03/24 10:58:59;;;;;;;4.93;2.65;;;12.60;58.40;;;;;;5001792;28;20405;-53
2024/03/24 11:01:26;;;;;;;2.75;2.55;;;12.10;58.00;;;;;;5002476;28;20045;-50
2024/03/24 11:03:55;;;;;;;2.92;2.38;;;11.80;58.20;;;;;;4978808;28;20041;-54
2024/03/24 11:06:24;;;;;;;5.88;2.67;;;11.40;58.50;;;;;;4979884;28;20137;-55
2024/03/24 11:08:51;;;;;;;1.42;1.33;;;11.30;59.10;;;;;;5001434;28;20053;-54
2024/03/24 11:11:19;;;;;;;1.20;1.00;;;11.30;59.10;;;;;;5004108;28;20088;-53
2024/03/24 11:13:47;;;;;;;2.30;1.30;;;11.20;59.00;;;;;;4997918;28;20053;-51
2024/03/24 11:16:14;;;;;;;1.05;1.02;;;11.20;58.90;;;;;;4994503;28;20472;-55
2024/03/24 11:18:42;;;;;;;0.60;0.60;;;11.10;58.80;;;;;;4997812;28;20222;-55
2024/03/24 11:21:29;;;;;;;0.60;0.60;;;11.10;59.00;;;;;;4998801;28;20058;-56
2024/03/24 11:23:56;;;;;;;2.17;1.23;;;11.00;59.20;;;;;;5000632;28;20056;-51
2024/03/24 11:26:29;;;;;;;1.23;1.17;;;11.10;59.60;;;;;;4992245;28;20049;-56
2024/03/24 11:28:56;;;;;;;1.70;1.23;;;11.50;60.90;;;;;;5000973;28;20919;-53
2024/03/24 11:31:36;;;;;;;3.70;1.92;;;11.80;59.70;;;;;;5000070;28;20084;-55
2024/03/24 11:34:07;;;;;;;5.20;2.88;;;12.10;59.50;;;;;;5001730;28;20136;-55
2024/03/24 11:36:36;;;;;;;4.80;2.83;;;12.20;59.20;;;;;;4998976;28;20064;-54
2024/03/24 11:39:06;;;;;;;4.00;2.40;;;12.30;59.20;;;;;;5009004;28;20140;-69
2024/03/24 11:41:35;;;;;;;3.67;1.60;;;12.30;58.80;;;;;;4906062;28;20089;-66
2024/03/24 11:44:04;;;;;;;5.85;2.63;;;12.40;59.00;;;;;;4989262;28;20045;-72
2024/03/24 11:46:33;;;;;;;3.00;2.67;;;12.50;59.00;;;;;;5002257;28;20065;-74
2024/03/24 11:49:02;;;;;;;1.15;1.10;;;12.60;59.00;;;;;;5003513;28;20598;-73
2024/03/24 11:51:31;;;;;;;5.90;2.65;;;12.70;58.90;;;;;;4999885;28;20075;-74
2024/03/24 11:53:59;;;;;;;3.05;1.17;;;12.80;59.00;;;;;;5000508;28;20066;-73
2024/03/24 11:56:29;;;;;;;2.70;1.98;;;12.90;59.10;;;;;;4998940;28;20065;-73
2024/03/24 11:58:58;;;;;;;1.17;1.08;;;12.90;59.30;;;;;;5005591;28;20585;-73
2024/03/24 12:01:26;;;;;;;1.60;0.80;;;12.90;59.40;;;;;;5001845;28;20056;-73
2024/03/24 12:03:53;;;;;;;3.60;1.95;;;12.90;59.30;;;;;;5003693;28;20084;-76
2024/03/24 12:06:20;;;;;;;1.45;1.35;;;12.90;59.50;;;;;;4978286;28;20049;-76
2024/03/24 12:08:49;;;;;;;1.23;1.13;;;13.20;59.90;;;;;;5002666;28;20208;-73
2024/03/24 12:11:16;;;;;;;10.05;3.60;;;13.50;59.90;;;;;;5002536;28;20049;-73
2024/03/24 12:13:43;;;;;;;17.13;6.68;;;13.80;59.50;;;;;;4983280;28;20088;-74
2024/03/24 12:16:18;;;;;;;16.30;4.65;;;13.90;59.00;;;;;;4980605;28;20049;-71
2024/03/24 12:18:46;;;;;;;1.33;1.20;;;14.00;58.70;;;;;;5002418;28;20050;-73
2024/03/24 12:21:14;;;;;;;0.70;0.70;;;14.00;58.80;;;;;;5005360;28;20453;-71
2024/03/24 12:23:42;;;;;;;4.28;0.75;;;14.20;59.00;;;;;;5004098;28;20064;-73
2024/03/24 12:26:21;;;;;;;3.08;1.98;;;14.40;59.10;;;;;;4995344;28;20069;-67
2024/03/24 12:28:51;;;;;;;3.03;1.45;;;14.80;59.20;;;;;;5003685;28;20107;-73
2024/03/24 12:31:20;;;;;;;0.95;0.95;;;15.10;59.00;;;;;;4986294;28;20049;-69
2024/03/24 12:33:49;;;;;;;2.30;1.05;;;15.40;58.60;;;;;;5000476;28;20053;-72
2024/03/24 12:36:16;;;;;;;14.23;5.68;;;15.50;58.30;;;;;;4994445;28;20728;-72
2024/03/24 12:38:43;;;;;;;2.88;0.93;;;15.60;58.70;;;;;;4984759;28;20056;-67
2024/03/24 12:41:20;;;;;;;4.25;1.63;;;15.40;58.20;;;;;;5002479;28;20484;-71
2024/03/24 12:43:51;;;;;;;1.23;1.13;;;15.00;57.10;;;;;;5004204;28;20061;-69
2024/03/24 12:46:26;;;;;;;1.45;1.00;;;14.60;56.60;;;;;;4993852;28;20513;-72
2024/03/24 12:48:52;;;;;;;2.37;1.90;;;13.90;56.40;;;;;;5004958;28;20057;-73
2024/03/24 12:51:20;;;;;;;0.50;0.50;;;13.30;56.60;;;;;;5005149;28;20308;-71